createdAt,value
2019-01-05T00:02:13.107Z,16.10
2019-01-05T00:04:59.746Z,16.93
2019-01-05T00:07:45.924Z,14.93
2019-01-05T00:10:32.586Z,17.30
2019-01-05T00:13:19.166Z,15.55
2019-01-05T00:16:05.910Z,17.87
2019-01-05T00:18:52.524Z,19.37
2019-01-05T00:22:00.440Z,16.60
2019-01-05T00:24:47.072Z,16.45
2019-01-05T00:27:46.381Z,15.72
2019-01-05T00:30:33.026Z,25.70
2019-01-05T00:33:39.325Z,19.65
2019-01-05T00:36:47.743Z,18.57
2019-01-05T00:39:34.362Z,14.65
2019-01-05T00:42:42.286Z,18.57
2019-01-05T00:45:19.294Z,14.70
2019-01-05T00:48:27.201Z,20.92
2019-01-05T00:54:34.571Z,19.62
2019-01-05T00:57:21.494Z,20.85
2019-01-05T01:03:09.559Z,19.98
2019-01-05T01:05:48.621Z,22.25
2019-01-05T01:08:35.235Z,19.00
2019-01-05T01:11:21.878Z,21.90
2019-01-05T01:14:27.995Z,18.65
2019-01-05T01:17:14.644Z,20.90
2019-01-05T01:20:01.266Z,20.35
2019-01-05T01:22:47.915Z,20.37
2019-01-05T01:28:54.927Z,21.60
2019-01-05T01:31:41.781Z,23.35
2019-01-05T01:34:28.514Z,21.55
2019-01-05T01:37:15.179Z,23.15
2019-01-05T01:43:04.365Z,24.15
2019-01-05T01:45:51.089Z,22.90
2019-01-05T01:52:00.689Z,23.90
2019-01-05T01:54:47.420Z,22.48
2019-01-05T02:00:35.417Z,22.90
2019-01-05T02:03:43.533Z,23.65
2019-01-05T02:19:35.761Z,25.88
2019-01-05T02:22:49.814Z,25.77
2019-01-05T02:29:21.446Z,27.07
2019-01-05T02:32:47.046Z,25.10
2019-01-05T02:36:13.314Z,28.57
2019-01-05T02:39:38.893Z,26.70
2019-01-05T02:42:49.874Z,26.10
2019-01-05T02:46:15.425Z,27.50
2019-01-05T02:52:57.121Z,25.15
2019-01-05T02:56:22.684Z,30.15
2019-01-05T02:59:48.287Z,25.62
2019-01-05T03:03:13.886Z,32.15
2019-01-05T03:06:39.493Z,27.17
2019-01-05T03:10:05.052Z,26.20
2019-01-05T03:13:30.606Z,30.08
2019-01-05T03:16:56.185Z,24.63
2019-01-05T03:24:00.859Z,25.60
2019-01-05T03:27:18.697Z,25.32
2019-01-05T03:30:44.268Z,27.42
2019-01-05T03:34:09.911Z,23.32
2019-01-05T03:37:24.105Z,24.23
2019-01-05T03:40:49.689Z,24.80
2019-01-05T03:43:49.255Z,27.13
2019-01-05T03:47:14.859Z,27.13
2019-01-05T03:53:51.200Z,26.35
2019-01-05T03:57:16.755Z,26.20
2019-01-05T04:00:27.054Z,29.92
2019-01-05T04:03:50.165Z,26.02
2019-01-05T04:07:15.824Z,26.23
2019-01-05T04:10:41.384Z,28.65
2019-01-05T04:14:06.974Z,23.45
2019-01-05T04:17:03.040Z,31.93
2019-01-05T04:20:11.458Z,21.75
2019-01-05T04:23:36.630Z,30.72
2019-01-05T04:27:02.197Z,23.57
2019-01-05T04:33:55.372Z,27.82
2019-01-05T04:37:21.036Z,24.70
2019-01-05T04:41:05.600Z,29.37
2019-01-05T04:44:46.163Z,24.57
2019-01-05T04:48:22.400Z,23.60
2019-01-05T04:51:51.399Z,24.12
2019-01-05T04:55:19.224Z,22.05
2019-01-05T04:58:33.034Z,25.00
2019-01-05T05:01:46.648Z,25.27
2019-01-05T05:05:16.980Z,22.48
2019-01-05T05:09:04.824Z,25.27
2019-01-05T05:12:12.111Z,23.20
2019-01-05T05:15:25.341Z,32.85
2019-01-05T05:18:43.825Z,28.62
2019-01-05T05:22:03.387Z,26.48
2019-01-05T05:25:28.872Z,29.95
2019-01-05T05:29:03.520Z,24.77
2019-01-05T05:32:17.767Z,23.70
2019-01-05T05:35:49.062Z,25.88
2019-01-05T05:39:17.738Z,25.37
2019-01-05T05:42:57.565Z,28.02
2019-01-05T05:46:23.122Z,25.50
2019-01-05T05:49:43.981Z,23.45
2019-01-05T05:53:09.608Z,30.37
2019-01-05T05:59:41.973Z,28.47
2019-01-05T06:02:59.277Z,30.08
2019-01-05T06:09:35.453Z,24.55
2019-01-05T06:13:01.027Z,29.55
2019-01-05T06:16:20.791Z,25.97
2019-01-05T06:19:46.339Z,25.95
2019-01-05T06:23:04.962Z,24.23
2019-01-05T06:26:19.255Z,30.37
2019-01-05T06:29:47.901Z,28.35
2019-01-05T06:33:13.469Z,26.93
2019-01-05T06:36:39.065Z,23.42
2019-01-05T06:39:53.293Z,24.63
2019-01-05T06:43:18.904Z,28.75
2019-01-05T06:46:18.183Z,21.30
2019-01-05T06:49:43.784Z,26.73
2019-01-05T06:53:09.352Z,25.23
2019-01-05T06:56:34.954Z,27.00
2019-01-05T07:06:35.488Z,22.27
2019-01-05T07:10:03.870Z,22.70
2019-01-05T07:13:29.426Z,25.15
2019-01-05T07:16:54.987Z,22.30
2019-01-05T07:20:20.612Z,21.73
2019-01-05T07:23:46.178Z,19.80
2019-01-05T07:27:11.768Z,16.60
2019-01-05T07:30:11.302Z,20.92
2019-01-05T07:33:36.891Z,21.65
2019-01-05T07:37:02.548Z,23.27
2019-01-05T07:40:28.109Z,18.07
2019-01-05T07:43:39.481Z,20.68
2019-01-05T07:47:05.050Z,15.30
2019-01-05T07:50:33.678Z,17.87
2019-01-05T07:53:59.257Z,16.25
2019-01-05T07:57:24.825Z,15.72
2019-01-05T08:00:50.459Z,14.80
2019-01-05T08:04:16.063Z,17.98
2019-01-05T08:07:41.667Z,14.85
2019-01-05T08:11:10.304Z,14.95
2019-01-05T08:14:35.919Z,18.92
2019-01-05T08:18:01.491Z,15.25
2019-01-05T08:21:27.073Z,16.50
2019-01-05T08:24:52.636Z,14.10
2019-01-05T08:28:18.213Z,18.20
2019-01-05T08:31:43.834Z,15.75
2019-01-05T08:35:07.482Z,14.73
2019-01-05T08:38:33.097Z,12.50
2019-01-05T08:41:58.657Z,15.35
2019-01-05T08:45:24.275Z,9.98
2019-01-05T08:48:48.535Z,11.43
2019-01-05T08:52:14.125Z,17.23
2019-01-05T08:55:39.717Z,10.82
2019-01-05T08:59:05.319Z,13.38
2019-01-05T09:02:30.909Z,11.15
2019-01-05T09:05:56.503Z,11.63
2019-01-05T09:08:56.263Z,12.35
2019-01-05T09:12:21.869Z,12.88
2019-01-05T09:15:59.179Z,12.25
2019-01-05T09:19:24.756Z,12.20
2019-01-05T09:22:47.402Z,8.70
2019-01-05T09:25:52.711Z,9.18
2019-01-05T09:29:31.749Z,8.10
2019-01-05T09:33:09.530Z,11.12
2019-01-05T09:36:45.287Z,8.20
2019-01-05T09:40:14.445Z,6.50
2019-01-05T09:43:53.670Z,7.72
2019-01-05T09:47:27.715Z,11.83
2019-01-05T09:50:37.319Z,6.60
2019-01-05T09:54:19.679Z,5.25
2019-01-05T09:57:27.434Z,6.42
2019-01-05T10:00:45.404Z,4.40
2019-01-05T10:04:00.869Z,4.80
2019-01-05T10:07:48.815Z,4.85
2019-01-05T10:11:26.790Z,5.20
2019-01-05T10:15:04.508Z,4.97
2019-01-05T10:18:52.562Z,4.22
2019-01-05T10:22:14.039Z,2.90
2019-01-05T10:26:03.386Z,3.08
2019-01-05T10:29:25.424Z,3.00
2019-01-05T10:32:52.150Z,4.05
2019-01-05T10:36:23.616Z,3.25
2019-01-05T10:39:51.573Z,3.20
2019-01-05T10:42:57.335Z,2.90
2019-01-05T10:46:07.339Z,3.87
2019-01-05T10:49:50.867Z,2.35
2019-01-05T10:53:21.851Z,3.47
2019-01-05T10:56:36.893Z,1.92
2019-01-05T11:00:30.820Z,2.22
2019-01-05T11:03:55.166Z,3.83
2019-01-05T11:07:42.186Z,2.30
2019-01-05T11:11:11.099Z,2.02
2019-01-05T11:15:02.297Z,1.82
2019-01-05T11:18:26.475Z,2.45
2019-01-05T11:21:53.991Z,2.55
2019-01-05T11:24:59.978Z,5.45
2019-01-05T11:28:35.665Z,2.40
2019-01-05T11:32:10.745Z,2.05
2019-01-05T11:35:50.865Z,3.10
2019-01-05T11:39:32.457Z,1.80
2019-01-05T11:42:56.726Z,2.20
2019-01-05T11:46:22.315Z,2.80
2019-01-05T11:49:47.893Z,2.33
2019-01-05T11:53:13.444Z,1.85
2019-01-05T11:56:39.062Z,1.75
2019-01-05T11:59:47.957Z,2.15
2019-01-05T12:03:16.367Z,2.12
2019-01-05T12:06:41.934Z,1.82
2019-01-05T12:10:07.532Z,1.75
2019-01-05T12:13:33.150Z,3.45
2019-01-05T12:16:56.974Z,2.50
2019-01-05T12:20:22.598Z,1.80
2019-01-05T12:23:38.568Z,1.77
2019-01-05T12:27:04.198Z,2.37
2019-01-05T12:30:29.780Z,1.50
2019-01-05T12:33:55.405Z,1.65
2019-01-05T12:37:20.954Z,1.77
2019-01-05T12:40:49.548Z,2.05
2019-01-05T12:44:15.136Z,2.98
2019-01-05T12:47:40.712Z,1.77
2019-01-05T12:51:06.284Z,2.45
2019-01-05T12:54:19.186Z,2.37
2019-01-05T12:57:47.566Z,2.52
2019-01-05T13:04:49.996Z,1.72
2019-01-05T13:08:18.466Z,2.27
2019-01-05T13:11:44.024Z,2.05
2019-01-05T13:15:01.900Z,1.80
2019-01-05T13:18:27.512Z,1.70
2019-01-05T13:21:50.021Z,2.30
2019-01-05T13:25:00.483Z,1.95
2019-01-05T13:28:07.727Z,2.40
2019-01-05T13:31:57.501Z,2.33
2019-01-05T13:35:16.218Z,3.85
